Time;durP1;ratioP1;P1;durP2;ratioP2;P2;SDS_P1;SDS_P2;PMS_P1;PMS_P2;Temp;Humidity;BMP_temperature;BMP_pressure;BME280_temperature;BME280_humidity;BME280_pressure;Samples;Min_cycle;Max_cycle;Signal;HPM_P1;HPM_P2
2022/11/25 00:01:26;;;;;;;13.95;2.30;;;;;;;;;;6197975;23;20000;-74
2022/11/25 00:03:56;;;;;;;12.48;2.33;;;;;;;;;;6199940;23;20004;-74
2022/11/25 00:06:30;;;;;;;13.70;1.90;;;;;;;;;;6197927;23;20008;-74
2022/11/25 00:08:57;;;;;;;13.30;1.88;;;;;;;;;;6199671;23;20059;-74
2022/11/25 00:11:24;;;;;;;16.52;2.10;;;;;;;;;;6200300;23;20000;-74
2022/11/25 00:13:50;;;;;;;7.30;1.75;;;;;;;;;;6199425;23;20443;-74
2022/11/25 00:16:17;;;;;;;15.63;2.78;;;;;;;;;;6202070;23;20001;-74
2022/11/25 00:18:44;;;;;;;5.65;1.67;;;;;;;;;;6205079;23;20238;-75
2022/11/25 00:21:12;;;;;;;12.40;2.38;;;;;;;;;;6204237;23;20001;-74
2022/11/25 00:23:38;;;;;;;13.05;2.80;;;;;;;;;;6203033;23;20001;-75
2022/11/25 00:26:12;;;;;;;9.95;2.10;;;;;;;;;;6205052;23;20624;-75
2022/11/25 00:28:38;;;;;;;13.10;2.65;;;;;;;;;;6205220;23;20009;-74
2022/11/25 00:31:05;;;;;;;7.65;1.65;;;;;;;;;;6206172;23;20088;-74
2022/11/25 00:33:31;;;;;;;13.98;1.73;;;;;;;;;;6208142;23;20082;-74
2022/11/25 00:35:59;;;;;;;10.10;1.88;;;;;;;;;;6210564;23;20043;-74
2022/11/25 00:38:26;;;;;;;13.63;2.15;;;;;;;;;;6209403;23;19997;-75
2022/11/25 00:46:21;;;;;;;14.85;1.90;;;;;;;;;;6206548;23;20084;-74
2022/11/25 00:48:47;;;;;;;13.43;2.08;;;;;;;;;;6206475;23;20012;-74
2022/11/25 00:51:14;;;;;;;13.65;2.10;;;;;;;;;;6204928;23;20001;-74
2022/11/25 00:53:40;;;;;;;16.95;2.38;;;;;;;;;;6210598;23;20081;-74
2022/11/25 00:56:12;;;;;;;14.45;2.97;;;;;;;;;;6210878;23;20005;-73
2022/11/25 00:58:38;;;;;;;;;;;;;;;;;;6210916;23;20062;-74
2022/11/25 01:01:04;;;;;;;16.20;2.05;;;;;;;;;;6208130;23;19988;-74
2022/11/25 01:03:30;;;;;;;10.68;2.38;;;;;;;;;;6210519;23;20012;-74
2022/11/25 01:06:00;;;;;;;7.05;1.77;;;;;;;;;;6210724;23;20023;-75
2022/11/25 01:08:28;;;;;;;12.88;2.17;;;;;;;;;;6210496;23;20069;-74
2022/11/25 01:11:13;;;;;;;13.10;2.58;;;;;;;;;;6209964;23;20004;-74
2022/11/25 01:13:40;;;;;;;10.93;1.90;;;;;;;;;;6208787;23;19996;-73
2022/11/25 01:16:07;;;;;;;12.65;2.13;;;;;;;;;;6210752;23;20067;-74
2022/11/25 01:18:34;;;;;;;14.07;2.45;;;;;;;;;;6210542;23;20008;-74
2022/11/25 01:21:11;;;;;;;15.73;2.53;;;;;;;;;;6209723;23;20004;-74
2022/11/25 01:23:37;;;;;;;16.13;2.22;;;;;;;;;;6208338;23;20452;-74
2022/11/25 01:26:04;;;;;;;14.27;1.70;;;;;;;;;;6210456;23;19992;-74
2022/11/25 01:28:31;;;;;;;11.23;2.22;;;;;;;;;;6210346;23;20020;-74
2022/11/25 01:31:04;;;;;;;15.02;2.15;;;;;;;;;;6209697;23;19996;-74
2022/11/25 01:33:31;;;;;;;10.30;1.90;;;;;;;;;;6209442;23;20005;-75
2022/11/25 01:36:01;;;;;;;14.15;2.15;;;;;;;;;;6209901;23;20393;-74
2022/11/25 01:38:27;;;;;;;10.38;1.48;;;;;;;;;;6209613;23;20087;-74
2022/11/25 01:40:54;;;;;;;11.98;2.13;;;;;;;;;;6206914;23;20027;-74
2022/11/25 01:43:20;;;;;;;11.13;1.63;;;;;;;;;;6210191;23;20453;-74
2022/11/25 01:45:46;;;;;;;15.80;3.10;;;;;;;;;;6209864;23;20087;-74
2022/11/25 01:48:16;;;;;;;17.45;2.42;;;;;;;;;;6208191;23;20016;-75
2022/11/25 01:50:43;;;;;;;13.80;2.00;;;;;;;;;;6209705;23;20004;-74
2022/11/25 01:53:11;;;;;;;14.35;2.67;;;;;;;;;;6210259;23;20094;-75
2022/11/25 01:55:40;;;;;;;11.65;1.98;;;;;;;;;;6210242;23;20003;-74
2022/11/25 01:58:08;;;;;;;13.68;2.30;;;;;;;;;;6208696;23;20079;-75
2022/11/25 02:00:35;;;;;;;10.75;1.73;;;;;;;;;;6210167;23;20013;-74
2022/11/25 02:03:01;;;;;;;15.70;2.42;;;;;;;;;;6210355;23;20020;-75
2022/11/25 02:05:45;;;;;;;6.97;1.83;;;;;;;;;;6210075;23;20341;-75
2022/11/25 02:08:12;;;;;;;12.45;2.20;;;;;;;;;;6209942;23;20091;-74
2022/11/25 02:10:39;;;;;;;10.93;2.15;;;;;;;;;;6210140;23;20013;-74
2022/11/25 02:13:05;;;;;;;12.73;2.22;;;;;;;;;;6207948;23;19997;-74
2022/11/25 02:15:34;;;;;;;9.52;2.10;;;;;;;;;;6209993;23;20007;-73
2022/11/25 02:18:00;;;;;;;10.30;1.63;;;;;;;;;;6209762;23;20197;-74
2022/11/25 02:20:26;;;;;;;11.93;2.45;;;;;;;;;;6207771;23;19997;-75
2022/11/25 02:22:57;;;;;;;9.00;1.85;;;;;;;;;;6209912;23;20630;-74
2022/11/25 02:25:29;;;;;;;12.57;2.28;;;;;;;;;;6209341;23;20027;-75
2022/11/25 02:28:01;;;;;;;10.45;1.98;;;;;;;;;;6209518;23;20008;-74
2022/11/25 02:30:27;;;;;;;9.23;1.65;;;;;;;;;;6209840;23;20035;-74
2022/11/25 02:32:53;;;;;;;13.93;2.33;;;;;;;;;;6208448;23;20321;-75
2022/11/25 02:35:33;;;;;;;7.55;2.03;;;;;;;;;;6207427;23;20012;-75
2022/11/25 02:38:03;;;;;;;10.65;2.20;;;;;;;;;;6201185;23;20004;-74
2022/11/25 02:40:29;;;;;;;18.52;2.25;;;;;;;;;;6198466;23;20001;-74
2022/11/25 02:42:57;;;;;;;12.88;2.63;;;;;;;;;;6203113;23;20083;-74
2022/11/25 02:45:28;;;;;;;10.70;1.90;;;;;;;;;;6200964;23;20001;-74
2022/11/25 02:47:54;;;;;;;14.27;2.78;;;;;;;;;;6202464;23;20000;-74
2022/11/25 02:50:21;;;;;;;11.75;2.28;;;;;;;;;;6202680;23;20044;-74
2022/11/25 02:52:48;;;;;;;13.88;2.28;;;;;;;;;;6202617;23;20669;-75
2022/11/25 02:55:14;;;;;;;11.35;1.98;;;;;;;;;;6202403;23;20011;-74
2022/11/25 02:57:40;;;;;;;22.25;2.60;;;;;;;;;;6202821;23;20190;-74
2022/11/25 03:00:06;;;;;;;12.07;2.40;;;;;;;;;;6201143;23;20008;-73
2022/11/25 03:02:32;;;;;;;11.98;2.67;;;;;;;;;;6202496;23;20015;-74
2022/11/25 03:04:59;;;;;;;10.70;1.90;;;;;;;;;;6202746;23;20001;-74
2022/11/25 03:07:25;;;;;;;12.52;2.22;;;;;;;;;;6202567;23;20421;-74
2022/11/25 03:09:51;;;;;;;22.15;3.40;;;;;;;;;;6202192;23;20044;-74
2022/11/25 03:12:17;;;;;;;10.82;2.60;;;;;;;;;;6200752;23;20000;-74
2022/11/25 03:14:43;;;;;;;11.45;2.40;;;;;;;;;;6203132;23;20004;-74
2022/11/25 03:17:10;;;;;;;10.00;2.58;;;;;;;;;;6202166;23;19993;-74
2022/11/25 03:19:36;;;;;;;11.35;2.38;;;;;;;;;;6202198;23;20008;-74
2022/11/25 03:22:02;;;;;;;14.30;2.45;;;;;;;;;;6202403;23;20080;-74
2022/11/25 03:24:29;;;;;;;12.73;2.70;;;;;;;;;;6200915;23;20007;-74
2022/11/25 03:26:55;;;;;;;11.98;1.83;;;;;;;;;;6202441;23;20001;-74
2022/11/25 03:29:21;;;;;;;15.13;2.05;;;;;;;;;;6202263;23;20023;-74
2022/11/25 03:31:47;;;;;;;18.02;2.45;;;;;;;;;;6200596;23;20000;-74
2022/11/25 03:34:13;;;;;;;13.57;2.17;;;;;;;;;;6202597;23;20074;-74
2022/11/25 03:36:39;;;;;;;12.63;2.35;;;;;;;;;;6202143;23;20040;-74
2022/11/25 03:39:05;;;;;;;7.93;2.10;;;;;;;;;;6202332;23;20009;-74
2022/11/25 03:41:32;;;;;;;15.85;3.03;;;;;;;;;;6201898;23;20328;-74
2022/11/25 03:43:58;;;;;;;14.20;2.17;;;;;;;;;;6202631;23;20393;-74
2022/11/25 03:46:24;;;;;;;10.23;2.13;;;;;;;;;;6202416;23;20011;-74
2022/11/25 03:48:50;;;;;;;14.02;2.50;;;;;;;;;;6200758;23;20021;-74
2022/11/25 03:51:16;;;;;;;13.57;3.05;;;;;;;;;;6200282;23;20004;-74
2022/11/25 03:53:42;;;;;;;20.13;2.95;;;;;;;;;;6202081;23;20015;-74
2022/11/25 03:56:09;;;;;;;12.63;2.50;;;;;;;;;;6201147;23;20004;-73
2022/11/25 03:58:35;;;;;;;15.25;3.60;;;;;;;;;;6202617;23;20004;-76
2022/11/25 04:01:01;;;;;;;9.25;2.50;;;;;;;;;;6202106;23;20011;-74
2022/11/25 04:03:28;;;;;;;11.48;2.53;;;;;;;;;;6200143;23;20445;-75
2022/11/25 04:05:54;;;;;;;12.55;2.40;;;;;;;;;;6202361;23;20537;-74
2022/11/25 04:08:21;;;;;;;12.55;2.83;;;;;;;;;;6201608;23;20508;-75
2022/11/25 04:10:48;;;;;;;11.43;2.40;;;;;;;;;;6201925;23;20027;-74
2022/11/25 04:13:15;;;;;;;13.13;2.80;;;;;;;;;;6202718;23;20087;-74
2022/11/25 04:15:48;;;;;;;9.05;2.67;;;;;;;;;;6201751;23;20005;-74
2022/11/25 04:18:14;;;;;;;14.68;2.63;;;;;;;;;;6200478;23;20007;-74
2022/11/25 04:20:40;;;;;;;15.70;2.35;;;;;;;;;;6202159;23;20086;-74
2022/11/25 04:23:07;;;;;;;8.88;2.03;;;;;;;;;;6202738;23;20075;-74
2022/11/25 04:25:33;;;;;;;13.10;2.45;;;;;;;;;;6200590;23;20352;-74
2022/11/25 04:27:59;;;;;;;10.57;1.92;;;;;;;;;;6202274;23;20418;-74
2022/11/25 04:30:26;;;;;;;11.88;2.38;;;;;;;;;;6201646;23;20000;-74
2022/11/25 04:32:52;;;;;;;12.25;2.97;;;;;;;;;;6201256;23;20005;-74
2022/11/25 04:35:18;;;;;;;13.15;2.35;;;;;;;;;;6200891;23;20054;-74
2022/11/25 04:37:44;;;;;;;13.68;2.22;;;;;;;;;;6202230;23;20001;-74
2022/11/25 04:40:11;;;;;;;16.35;2.50;;;;;;;;;;6201941;23;20024;-74
2022/11/25 04:42:38;;;;;;;14.48;2.00;;;;;;;;;;6202286;23;20050;-74
2022/11/25 04:45:11;;;;;;;18.90;2.53;;;;;;;;;;6199729;23;20036;-74
2022/11/25 04:47:37;;;;;;;7.50;1.65;;;;;;;;;;6202302;23;20011;-73
2022/11/25 04:50:05;;;;;;;9.23;2.35;;;;;;;;;;6200094;23;20073;-75
2022/11/25 04:52:32;;;;;;;10.43;1.85;;;;;;;;;;6200198;23;20658;-74
2022/11/25 04:54:58;;;;;;;15.45;2.40;;;;;;;;;;6202284;23;20008;-74
2022/11/25 04:57:24;;;;;;;14.68;3.17;;;;;;;;;;6202225;23;20587;-74
2022/11/25 04:59:51;;;;;;;10.27;2.15;;;;;;;;;;6201759;23;20004;-74
2022/11/25 05:02:17;;;;;;;13.48;3.00;;;;;;;;;;6200277;23;20005;-75
2022/11/25 05:04:44;;;;;;;12.27;2.78;;;;;;;;;;6201892;23;20011;-74
2022/11/25 05:07:10;;;;;;;14.57;2.22;;;;;;;;;;6202198;23;20075;-74
2022/11/25 05:09:36;;;;;;;11.02;1.98;;;;;;;;;;6199646;23;20671;-73
2022/11/25 05:12:03;;;;;;;14.40;2.05;;;;;;;;;;6200417;23;20430;-74
2022/11/25 05:14:29;;;;;;;13.18;2.15;;;;;;;;;;6201315;23;20000;-73
2022/11/25 05:16:55;;;;;;;8.50;2.25;;;;;;;;;;6203449;23;20005;-73
2022/11/25 05:19:22;;;;;;;10.55;1.67;;;;;;;;;;6203708;23;20008;-73
2022/11/25 05:21:48;;;;;;;9.95;1.70;;;;;;;;;;6201841;23;20004;-73
2022/11/25 05:24:14;;;;;;;13.05;1.95;;;;;;;;;;6203847;23;20001;-74
2022/11/25 05:26:40;;;;;;;11.07;1.65;;;;;;;;;;6203343;23;20015;-74
2022/11/25 05:29:06;;;;;;;8.50;2.00;;;;;;;;;;6203305;23;20017;-74
2022/11/25 05:31:32;;;;;;;11.52;2.30;;;;;;;;;;6201954;23;20000;-74
2022/11/25 05:34:02;;;;;;;9.98;2.00;;;;;;;;;;6203800;23;20004;-73
2022/11/25 05:36:28;;;;;;;15.85;2.63;;;;;;;;;;6203532;23;20016;-73
2022/11/25 05:38:57;;;;;;;12.50;2.13;;;;;;;;;;6203319;23;20004;-73
2022/11/25 05:41:24;;;;;;;10.43;2.17;;;;;;;;;;6202039;23;20032;-73
2022/11/25 05:43:50;;;;;;;9.85;1.80;;;;;;;;;;6203373;23;20079;-73
2022/11/25 05:46:16;;;;;;;13.95;2.00;;;;;;;;;;6203914;23;20008;-73
2022/11/25 05:48:42;;;;;;;15.93;2.88;;;;;;;;;;6201596;23;20412;-74
2022/11/25 05:51:09;;;;;;;16.42;2.45;;;;;;;;;;6201785;23;20004;-74
2022/11/25 05:53:35;;;;;;;17.45;3.15;;;;;;;;;;6203821;23;20005;-73
2022/11/25 05:56:02;;;;;;;14.82;2.50;;;;;;;;;;6203500;23;20008;-74
2022/11/25 05:58:29;;;;;;;9.10;1.85;;;;;;;;;;6203423;23;20009;-74
2022/11/25 06:00:57;;;;;;;14.82;2.28;;;;;;;;;;6202122;23;20016;-73
2022/11/25 06:03:29;;;;;;;8.10;2.47;;;;;;;;;;6201246;23;20016;-73
2022/11/25 06:05:55;;;;;;;10.50;2.17;;;;;;;;;;6203100;23;20310;-73
2022/11/25 06:08:22;;;;;;;10.93;1.75;;;;;;;;;;6202757;23;20016;-73
2022/11/25 06:10:48;;;;;;;17.98;2.60;;;;;;;;;;6202503;23;20023;-73
2022/11/25 06:13:14;;;;;;;13.88;2.90;;;;;;;;;;6201531;23;20028;-74
2022/11/25 06:15:41;;;;;;;10.57;2.47;;;;;;;;;;6202573;23;20075;-74
2022/11/25 06:18:07;;;;;;;9.30;2.33;;;;;;;;;;6203274;23;20084;-74
2022/11/25 06:20:33;;;;;;;13.40;2.38;;;;;;;;;;6201143;23;20005;-74
2022/11/25 06:23:00;;;;;;;10.50;2.10;;;;;;;;;;6203275;23;20528;-73
2022/11/25 06:25:26;;;;;;;9.73;2.08;;;;;;;;;;6203140;23;19997;-73
2022/11/25 06:27:52;;;;;;;8.73;1.70;;;;;;;;;;6202372;23;20019;-74
2022/11/25 06:30:18;;;;;;;11.75;1.92;;;;;;;;;;6200857;23;20015;-74
2022/11/25 06:32:44;;;;;;;10.32;2.20;;;;;;;;;;6203129;23;20000;-74
2022/11/25 06:44:48;;;;;;;18.45;4.07;;;;;;;;;;5985248;23;20032;-88
2022/11/25 06:47:14;;;;;;;12.85;3.80;;;;;;;;;;6146507;23;20009;-89
2022/11/25 06:49:40;;;;;;;13.18;3.33;;;;;;;;;;6172197;23;20084;-88
2022/11/25 06:52:06;;;;;;;10.75;2.35;;;;;;;;;;6145528;23;20321;-87
2022/11/25 06:54:33;;;;;;;13.70;3.25;;;;;;;;;;6143680;23;20041;-88
2022/11/25 06:56:59;;;;;;;12.75;2.95;;;;;;;;;;6148350;23;20029;-88
2022/11/25 06:59:25;;;;;;;12.45;2.72;;;;;;;;;;6148696;23;20410;-88
2022/11/25 07:01:51;;;;;;;15.50;3.25;;;;;;;;;;6171535;23;20080;-88
2022/11/25 07:04:17;;;;;;;15.05;3.15;;;;;;;;;;6144550;23;20432;-87
2022/11/25 07:06:44;;;;;;;15.40;3.17;;;;;;;;;;6146405;23;20009;-88
2022/11/25 07:09:10;;;;;;;12.95;3.88;;;;;;;;;;6145567;23;20021;-88
2022/11/25 07:11:37;;;;;;;13.25;4.07;;;;;;;;;;6147007;23;20001;-88
2022/11/25 07:14:04;;;;;;;18.33;4.05;;;;;;;;;;6149879;23;20041;-88
2022/11/25 07:16:31;;;;;;;21.63;4.30;;;;;;;;;;6149163;23;20475;-88
2022/11/25 07:19:00;;;;;;;13.55;4.32;;;;;;;;;;6152318;23;20412;-88
2022/11/25 07:21:28;;;;;;;14.45;4.22;;;;;;;;;;6148515;23;20403;-88
2022/11/25 07:23:55;;;;;;;12.23;3.90;;;;;;;;;;6149942;23;20016;-88
2022/11/25 07:26:25;;;;;;;13.18;4.15;;;;;;;;;;6179279;23;20051;-89
2022/11/25 07:28:53;;;;;;;16.25;3.80;;;;;;;;;;6148051;23;20012;-88
2022/11/25 07:31:27;;;;;;;18.35;4.00;;;;;;;;;;6148688;23;20092;-88
2022/11/25 07:33:55;;;;;;;15.60;4.13;;;;;;;;;;6147259;23;20076;-86
2022/11/25 07:36:21;;;;;;;14.68;3.70;;;;;;;;;;6144954;23;20031;-86
2022/11/25 07:38:47;;;;;;;14.15;3.92;;;;;;;;;;6143598;23;20340;-86
2022/11/25 07:41:15;;;;;;;11.50;3.30;;;;;;;;;;6146286;23;20092;-86
2022/11/25 07:43:44;;;;;;;10.35;3.17;;;;;;;;;;6146231;23;20348;-86
2022/11/25 07:46:11;;;;;;;9.90;2.97;;;;;;;;;;6146798;23;20036;-87
2022/11/25 07:48:37;;;;;;;12.75;3.10;;;;;;;;;;6142651;23;20013;-85
2022/11/25 07:51:03;;;;;;;15.30;4.45;;;;;;;;;;6144673;23;20005;-86
2022/11/25 07:53:29;;;;;;;14.25;4.38;;;;;;;;;;6144419;23;20013;-86
2022/11/25 07:55:56;;;;;;;11.40;3.42;;;;;;;;;;6145336;23;20442;-86
2022/11/25 07:58:22;;;;;;;10.63;3.38;;;;;;;;;;6145004;23;20008;-86
2022/11/25 08:00:48;;;;;;;13.65;4.18;;;;;;;;;;6143071;23;20135;-86
2022/11/25 08:03:14;;;;;;;14.73;3.92;;;;;;;;;;6144682;23;20005;-86
2022/11/25 08:05:40;;;;;;;7.18;2.65;;;;;;;;;;6146077;23;20096;-86
2022/11/25 08:08:06;;;;;;;12.68;2.92;;;;;;;;;;6146226;23;20091;-86
2022/11/25 08:10:33;;;;;;;14.35;2.83;;;;;;;;;;6145947;23;20015;-86
2022/11/25 08:12:59;;;;;;;10.20;2.83;;;;;;;;;;6143696;23;20382;-85
2022/11/25 08:15:25;;;;;;;8.13;2.90;;;;;;;;;;6146977;23;20063;-86
2022/11/25 08:17:52;;;;;;;12.73;3.63;;;;;;;;;;6142536;23;20009;-91
2022/11/25 08:20:18;;;;;;;12.55;4.53;;;;;;;;;;6146701;23;20092;-91
2022/11/25 08:22:44;;;;;;;16.85;5.20;;;;;;;;;;6148269;23;20140;-88
2022/11/25 08:25:10;;;;;;;15.98;5.55;;;;;;;;;;6122073;23;20329;-90
2022/11/25 08:27:37;;;;;;;15.27;4.25;;;;;;;;;;6146491;23;20005;-86
2022/11/25 08:30:03;;;;;;;10.25;4.13;;;;;;;;;;6144933;23;20154;-86
2022/11/25 08:32:29;;;;;;;14.90;4.68;;;;;;;;;;6143802;23;20005;-86
2022/11/25 08:34:55;;;;;;;13.88;4.35;;;;;;;;;;6145250;23;20559;-87
2022/11/25 08:37:22;;;;;;;12.45;4.15;;;;;;;;;;6143253;23;20012;-86
2022/11/25 08:39:49;;;;;;;10.32;4.22;;;;;;;;;;6145201;23;20001;-87
2022/11/25 08:42:15;;;;;;;10.65;3.40;;;;;;;;;;6144633;23;20028;-87
2022/11/25 08:44:41;;;;;;;14.73;2.95;;;;;;;;;;6160065;23;20027;-87
2022/11/25 08:47:09;;;;;;;13.90;2.25;;;;;;;;;;6172808;23;20111;-86
2022/11/25 08:49:35;;;;;;;9.43;2.42;;;;;;;;;;6175610;23;20027;-86
2022/11/25 08:52:01;;;;;;;4.78;1.75;;;;;;;;;;6176503;23;20381;-86
2022/11/25 08:54:27;;;;;;;9.82;1.75;;;;;;;;;;6177606;23;20008;-86
2022/11/25 08:56:53;;;;;;;10.38;2.35;;;;;;;;;;6177109;23;20110;-85
2022/11/25 08:59:21;;;;;;;12.38;2.05;;;;;;;;;;6176636;23;20013;-86
2022/11/25 09:01:47;;;;;;;11.32;2.17;;;;;;;;;;6174414;23;20031;-86
2022/11/25 09:04:13;;;;;;;9.15;1.65;;;;;;;;;;6176896;23;20043;-86
2022/11/25 09:06:40;;;;;;;12.93;2.28;;;;;;;;;;6177360;23;20471;-86
2022/11/25 09:09:06;;;;;;;10.52;2.03;;;;;;;;;;6177672;23;20521;-86
2022/11/25 09:11:32;;;;;;;13.80;2.47;;;;;;;;;;6171266;23;20016;-86
2022/11/25 09:13:58;;;;;;;7.88;2.20;;;;;;;;;;6173845;23;20001;-86
2022/11/25 09:16:24;;;;;;;8.25;2.15;;;;;;;;;;6177115;23;20043;-86
2022/11/25 09:18:51;;;;;;;9.02;2.38;;;;;;;;;;6176823;23;20012;-87
2022/11/25 09:21:17;;;;;;;8.68;2.40;;;;;;;;;;6173988;23;20015;-87
2022/11/25 09:23:43;;;;;;;10.35;2.00;;;;;;;;;;6177493;23;20091;-85
2022/11/25 09:26:17;;;;;;;9.48;2.22;;;;;;;;;;6176839;23;20012;-85
2022/11/25 09:28:43;;;;;;;10.13;1.83;;;;;;;;;;6177601;23;20016;-86
2022/11/25 09:31:09;;;;;;;10.85;2.28;;;;;;;;;;6175349;23;20169;-86
2022/11/25 09:33:36;;;;;;;8.88;2.20;;;;;;;;;;6176937;23;20447;-86
2022/11/25 09:36:03;;;;;;;10.27;3.80;;;;;;;;;;6176450;23;20433;-86
2022/11/25 09:38:29;;;;;;;14.00;4.53;;;;;;;;;;6176157;23;20088;-86
2022/11/25 09:41:08;;;;;;;11.38;3.63;;;;;;;;;;6176172;23;20001;-85
2022/11/25 09:46:43;;;;;;;10.52;3.53;;;;;;;;;;6173542;23;20067;-86
2022/11/25 09:49:28;;;;;;;9.10;2.72;;;;;;;;;;6146354;23;20020;-86
2022/11/25 09:51:55;;;;;;;12.57;3.58;;;;;;;;;;6146423;23;20289;-86
2022/11/25 09:54:22;;;;;;;42.88;19.35;;;;;;;;;;6144662;23;20005;-86
2022/11/25 09:56:52;;;;;;;11.18;3.95;;;;;;;;;;6146883;23;20019;-86
2022/11/25 09:59:28;;;;;;;17.73;3.40;;;;;;;;;;6146435;23;20088;-87
2022/11/25 10:02:17;;;;;;;18.77;2.92;;;;;;;;;;6145160;23;20459;-86
2022/11/25 10:04:47;;;;;;;12.75;3.20;;;;;;;;;;6144895;23;20013;-87
2022/11/25 10:07:19;;;;;;;21.85;8.98;;;;;;;;;;6147342;23;20040;-86
2022/11/25 10:09:45;;;;;;;16.27;3.85;;;;;;;;;;6147057;23;20075;-86
2022/11/25 10:12:24;;;;;;;11.38;4.07;;;;;;;;;;6145499;23;20064;-86
2022/11/25 10:15:01;;;;;;;15.02;3.00;;;;;;;;;;6143050;23;20663;-86
2022/11/25 10:17:43;;;;;;;16.65;2.55;;;;;;;;;;6146763;23;20044;-86
2022/11/25 10:20:17;;;;;;;12.18;3.17;;;;;;;;;;6146596;23;20012;-86
2022/11/25 10:22:45;;;;;;;12.70;4.07;;;;;;;;;;6172153;23;20001;-86
2022/11/25 10:25:14;;;;;;;14.23;2.92;;;;;;;;;;6143988;23;20458;-86
2022/11/25 10:27:54;;;;;;;11.52;3.35;;;;;;;;;;6145638;23;20009;-86
2022/11/25 10:30:23;;;;;;;10.60;3.75;;;;;;;;;;6146455;23;20017;-86
2022/11/25 10:33:07;;;;;;;12.38;3.05;;;;;;;;;;6145841;23;20340;-86
2022/11/25 10:35:38;;;;;;;9.23;2.58;;;;;;;;;;6146825;23;20588;-86
2022/11/25 10:38:06;;;;;;;11.88;2.55;;;;;;;;;;6145606;23;20016;-86
2022/11/25 10:40:32;;;;;;;15.40;2.85;;;;;;;;;;6143498;23;20309;-86
2022/11/25 10:43:01;;;;;;;13.15;2.83;;;;;;;;;;6142903;23;20063;-87
2022/11/25 10:45:31;;;;;;;10.63;2.55;;;;;;;;;;6146577;23;20031;-87
2022/11/25 10:48:06;;;;;;;10.57;2.83;;;;;;;;;;6146213;23;20009;-86
2022/11/25 10:50:47;;;;;;;11.90;2.72;;;;;;;;;;6145776;23;20371;-86
2022/11/25 10:53:16;;;;;;;15.27;2.78;;;;;;;;;;6144066;23;20006;-86
2022/11/25 10:55:55;;;;;;;13.55;3.40;;;;;;;;;;6145853;23;20015;-86
2022/11/25 10:58:32;;;;;;;8.07;2.15;;;;;;;;;;6145470;23;20095;-86
2022/11/25 11:01:22;;;;;;;13.88;2.90;;;;;;;;;;6146026;23;20004;-85
2022/11/25 11:03:53;;;;;;;9.43;2.03;;;;;;;;;;6134148;23;20012;-85
2022/11/25 11:06:48;;;;;;;11.10;2.13;;;;;;;;;;6145462;23;20016;-87
2022/11/25 11:09:33;;;;;;;9.30;2.22;;;;;;;;;;6124801;23;20013;-86
2022/11/25 11:12:07;;;;;;;8.50;2.30;;;;;;;;;;6144833;23;20004;-86
2022/11/25 11:14:34;;;;;;;9.75;2.17;;;;;;;;;;6145625;23;20308;-85
2022/11/25 11:17:08;;;;;;;8.57;2.13;;;;;;;;;;6145672;23;20076;-89
2022/11/25 11:19:34;;;;;;;11.25;2.10;;;;;;;;;;6144193;23;20009;-86
2022/11/25 11:22:14;;;;;;;14.77;2.53;;;;;;;;;;6145409;23;20036;-87
2022/11/25 11:24:41;;;;;;;13.00;2.75;;;;;;;;;;6145487;23;20005;-88
2022/11/25 11:27:22;;;;;;;10.52;2.42;;;;;;;;;;6145965;23;20005;-84
2022/11/25 11:29:48;;;;;;;15.60;3.42;;;;;;;;;;6144597;23;20075;-82
2022/11/25 11:32:24;;;;;;;8.68;1.95;;;;;;;;;;6169463;23;20405;-83
2022/11/25 11:35:05;;;;;;;11.43;2.70;;;;;;;;;;6145275;23;20087;-83
2022/11/25 11:37:45;;;;;;;9.65;2.30;;;;;;;;;;6145197;23;20005;-83
2022/11/25 11:40:22;;;;;;;12.15;3.13;;;;;;;;;;6145930;23;20293;-87
2022/11/25 11:46:10;;;;;;;11.55;2.22;;;;;;;;;;5956064;23;20030;-87
2022/11/25 11:48:44;;;;;;;18.25;3.40;;;;;;;;;;6143363;23;20031;-85
2022/11/25 11:51:13;;;;;;;13.70;3.00;;;;;;;;;;6144775;23;20415;-84
2022/11/25 11:54:02;;;;;;;15.77;4.47;;;;;;;;;;6144890;23;20091;-84
2022/11/25 11:56:34;;;;;;;13.45;3.38;;;;;;;;;;6114334;23;20016;-84
2022/11/25 11:59:03;;;;;;;11.20;2.95;;;;;;;;;;6145636;23;20013;-85
2022/11/25 12:01:48;;;;;;;8.68;3.33;;;;;;;;;;6144468;23;20057;-85
2022/11/25 12:04:29;;;;;;;8.90;2.45;;;;;;;;;;6142889;23;20435;-86
2022/11/25 12:06:58;;;;;;;7.97;2.20;;;;;;;;;;6145837;23;20028;-84
2022/11/25 12:09:25;;;;;;;7.47;2.58;;;;;;;;;;6145618;23;20017;-85
2022/11/25 12:11:53;;;;;;;12.82;3.00;;;;;;;;;;6144702;23;20242;-84
2022/11/25 12:14:19;;;;;;;12.98;2.80;;;;;;;;;;6143499;23;20383;-86
2022/11/25 12:16:48;;;;;;;10.27;2.17;;;;;;;;;;6144554;23;20496;-85
2022/11/25 12:19:40;;;;;;;8.07;2.40;;;;;;;;;;6144710;23;20004;-84
2022/11/25 12:22:26;;;;;;;11.70;2.20;;;;;;;;;;6139645;23;20017;-86
2022/11/25 12:25:07;;;;;;;13.05;2.95;;;;;;;;;;6126194;23;20009;-85
2022/11/25 12:27:42;;;;;;;11.52;2.45;;;;;;;;;;6143332;23;20005;-88
2022/11/25 12:30:21;;;;;;;13.85;3.78;;;;;;;;;;6145661;23;20104;-84
2022/11/25 12:32:48;;;;;;;10.82;3.03;;;;;;;;;;6145319;23;20081;-85
2022/11/25 12:35:40;;;;;;;17.02;2.95;;;;;;;;;;6146147;23;20383;-88
2022/11/25 12:38:18;;;;;;;8.98;2.55;;;;;;;;;;6112367;23;20274;-86
2022/11/25 12:41:03;;;;;;;13.82;2.42;;;;;;;;;;6144845;23;20037;-86
2022/11/25 12:43:29;;;;;;;12.73;2.47;;;;;;;;;;6145050;23;20005;-88
2022/11/25 12:46:05;;;;;;;12.60;2.95;;;;;;;;;;6145922;23;20106;-88
2022/11/25 12:48:32;;;;;;;11.02;2.60;;;;;;;;;;6145553;23;20051;-88
2022/11/25 12:51:02;;;;;;;12.95;2.47;;;;;;;;;;6146190;23;20012;-87
2022/11/25 12:53:39;;;;;;;13.60;2.00;;;;;;;;;;6143660;23;20016;-89
2022/11/25 12:56:10;;;;;;;15.85;3.20;;;;;;;;;;6145742;23;20009;-86
2022/11/25 12:58:45;;;;;;;10.85;2.17;;;;;;;;;;6146078;23;20237;-86
2022/11/25 13:01:24;;;;;;;20.92;2.78;;;;;;;;;;6146436;23;20005;-89
2022/11/25 13:03:50;;;;;;;17.48;2.78;;;;;;;;;;6145263;23;20028;-88
2022/11/25 13:06:17;;;;;;;12.10;2.60;;;;;;;;;;6146527;23;20005;-88
2022/11/25 13:09:02;;;;;;;13.82;2.90;;;;;;;;;;6146749;23;20019;-90
2022/11/25 13:11:47;;;;;;;10.82;2.50;;;;;;;;;;6145558;23;20088;-87
2022/11/25 13:14:33;;;;;;;9.90;2.20;;;;;;;;;;6143713;23;20777;-89
2022/11/25 13:17:00;;;;;;;11.30;2.13;;;;;;;;;;6101860;23;20360;-87
2022/11/25 13:19:26;;;;;;;15.48;2.45;;;;;;;;;;6146551;23;20080;-86
2022/11/25 13:22:05;;;;;;;16.52;2.63;;;;;;;;;;6145964;23;20071;-87
2022/11/25 13:24:41;;;;;;;11.80;3.45;;;;;;;;;;6143888;23;20013;-85
2022/11/25 13:27:27;;;;;;;12.85;3.08;;;;;;;;;;6145494;23;20032;-85
2022/11/25 13:29:54;;;;;;;15.98;2.70;;;;;;;;;;6101319;23;20081;-85
2022/11/25 13:32:39;;;;;;;12.52;3.33;;;;;;;;;;6144260;23;20801;-85
2022/11/25 13:35:27;;;;;;;7.60;1.77;;;;;;;;;;6145309;23;20157;-84
2022/11/25 13:37:53;;;;;;;15.55;3.20;;;;;;;;;;6147446;23;20001;-85
2022/11/25 13:40:19;;;;;;;12.70;2.78;;;;;;;;;;6173542;23;20524;-85
2022/11/25 13:42:46;;;;;;;13.85;2.97;;;;;;;;;;6144726;23;20001;-85
2022/11/25 13:45:32;;;;;;;23.17;2.60;;;;;;;;;;6147005;23;20008;-85
2022/11/25 13:48:06;;;;;;;13.48;2.53;;;;;;;;;;6174461;23;20039;-84
2022/11/25 13:50:32;;;;;;;9.63;3.17;;;;;;;;;;6175894;23;20466;-85
2022/11/25 13:53:18;;;;;;;14.90;2.95;;;;;;;;;;6174028;23;20435;-85
2022/11/25 13:55:45;;;;;;;14.45;3.72;;;;;;;;;;6176119;23;20047;-85
2022/11/25 13:58:22;;;;;;;13.95;2.30;;;;;;;;;;6176237;23;20058;-84
2022/11/25 14:00:57;;;;;;;9.18;2.50;;;;;;;;;;6176402;23;20009;-85
2022/11/25 14:03:23;;;;;;;9.75;2.53;;;;;;;;;;6174621;23;20004;-85
2022/11/25 14:05:58;;;;;;;10.75;2.38;;;;;;;;;;6174480;23;20004;-84
2022/11/25 14:08:44;;;;;;;10.20;2.78;;;;;;;;;;6175599;23;20051;-85
2022/11/25 14:11:10;;;;;;;14.85;2.95;;;;;;;;;;6176797;23;20643;-85
2022/11/25 14:13:36;;;;;;;13.95;3.50;;;;;;;;;;6175696;23;20338;-85
2022/11/25 14:16:21;;;;;;;14.57;2.53;;;;;;;;;;6174324;23;20080;-84
2022/11/25 14:18:59;;;;;;;15.15;3.53;;;;;;;;;;6177246;23;20004;-85
2022/11/25 14:21:46;;;;;;;8.85;2.63;;;;;;;;;;6175913;23;20466;-85
2022/11/25 14:24:31;;;;;;;14.95;3.10;;;;;;;;;;6175683;23;20008;-85
2022/11/25 14:26:58;;;;;;;9.30;2.28;;;;;;;;;;6173815;23;20119;-85
2022/11/25 14:29:40;;;;;;;11.73;2.55;;;;;;;;;;6175978;23;20016;-86
2022/11/25 14:32:06;;;;;;;17.07;2.73;;;;;;;;;;6176540;23;20447;-85
2022/11/25 14:34:38;;;;;;;16.80;3.65;;;;;;;;;;6173800;23;20009;-85
2022/11/25 14:37:10;;;;;;;11.15;2.90;;;;;;;;;;6176468;23;20107;-85
2022/11/25 14:39:55;;;;;;;11.60;2.88;;;;;;;;;;6176716;23;20012;-85
2022/11/25 14:42:22;;;;;;;11.20;2.70;;;;;;;;;;6175648;23;20019;-85
2022/11/25 14:44:58;;;;;;;15.55;2.80;;;;;;;;;;6173338;23;20528;-85
2022/11/25 14:47:28;;;;;;;12.90;3.33;;;;;;;;;;6174738;23;20101;-85
2022/11/25 14:49:56;;;;;;;17.45;4.70;;;;;;;;;;6176312;23;20020;-84
2022/11/25 14:52:30;;;;;;;16.20;3.22;;;;;;;;;;6202310;23;20817;-85
2022/11/25 14:54:57;;;;;;;11.85;2.58;;;;;;;;;;6173587;23;20026;-85
2022/11/25 14:57:34;;;;;;;19.02;3.95;;;;;;;;;;6176158;23;20004;-85
2022/11/25 15:00:05;;;;;;;11.60;3.30;;;;;;;;;;6176244;23;20022;-85
2022/11/25 15:02:34;;;;;;;15.77;3.10;;;;;;;;;;6174913;23;20013;-85
2022/11/25 15:05:01;;;;;;;11.07;3.63;;;;;;;;;;6173690;23;20131;-85
2022/11/25 15:07:28;;;;;;;15.43;3.55;;;;;;;;;;6175186;23;20009;-85
2022/11/25 15:09:54;;;;;;;19.98;3.47;;;;;;;;;;6175790;23;20039;-84